Time;durP1;ratioP1;P1;durP2;ratioP2;P2;SDS_P1;SDS_P2;PMS_P1;PMS_P2;Temp;Humidity;BMP_temperature;BMP_pressure;BME280_temperature;BME280_humidity;BME280_pressure;Samples;Min_cycle;Max_cycle;Signal;HPM_P1;HPM_P2
2022/10/01 00:01:16;;;;;;;15.47;13.13;;;9.30;99.90;;;;;;5034741;28;21067;-74
2022/10/01 00:03:43;;;;;;;14.90;12.67;;;9.30;99.90;;;;;;5034981;28;20607;-75
2022/10/01 00:06:12;;;;;;;13.53;12.00;;;9.20;99.90;;;;;;5034995;28;20825;-74
2022/10/01 00:08:40;;;;;;;13.07;10.97;;;9.30;99.90;;;;;;5034535;28;20900;-75
2022/10/01 00:11:10;;;;;;;13.03;11.40;;;9.20;99.90;;;;;;5034516;28;20518;-74
2022/10/01 00:13:37;;;;;;;13.83;10.27;;;9.20;99.90;;;;;;5034452;28;20454;-73
2022/10/01 00:16:07;;;;;;;13.17;10.37;;;9.20;99.90;;;;;;5034820;28;20451;-74
2022/10/01 00:18:35;;;;;;;13.40;11.13;;;9.20;99.90;;;;;;5034978;28;20442;-74
2022/10/01 00:21:06;;;;;;;12.43;10.40;;;9.20;99.90;;;;;;5034438;28;20497;-74
2022/10/01 00:23:33;;;;;;;10.93;9.93;;;9.20;99.90;;;;;;5034715;28;20428;-75
2022/10/01 00:26:08;;;;;;;12.23;10.90;;;9.30;99.90;;;;;;5034972;28;20469;-74
2022/10/01 00:28:35;;;;;;;12.50;10.73;;;9.30;99.90;;;;;;5034678;28;20420;-74
2022/10/01 00:31:02;;;;;;;15.03;12.60;;;9.30;99.90;;;;;;5034766;28;20453;-75
2022/10/01 00:33:31;;;;;;;15.43;13.20;;;9.30;99.90;;;;;;5035592;28;20429;-75
2022/10/01 00:35:58;;;;;;;15.47;13.77;;;9.30;99.90;;;;;;5034477;28;20808;-75
2022/10/01 00:38:25;;;;;;;14.67;11.80;;;9.30;99.90;;;;;;5034924;28;20456;-74
2022/10/01 00:40:52;;;;;;;14.27;12.17;;;9.30;99.90;;;;;;5034153;28;20825;-74
2022/10/01 00:43:23;;;;;;;13.40;12.00;;;9.30;99.90;;;;;;5034600;28;20520;-74
2022/10/01 00:45:50;;;;;;;13.60;11.53;;;9.30;99.90;;;;;;5034174;28;20814;-74
2022/10/01 00:48:17;;;;;;;18.07;11.90;;;9.30;99.90;;;;;;5034581;28;20491;-75
2022/10/01 00:50:47;;;;;;;13.20;11.93;;;9.30;99.90;;;;;;5034139;28;20516;-75
2022/10/01 00:53:14;;;;;;;13.03;11.20;;;9.30;99.90;;;;;;5033891;28;20928;-74
2022/10/01 00:55:44;;;;;;;12.93;11.07;;;9.30;99.90;;;;;;5034041;28;20532;-74
2022/10/01 00:58:14;;;;;;;13.03;11.50;;;9.30;99.90;;;;;;5033802;28;20914;-74
2022/10/01 01:00:42;;;;;;;12.40;10.80;;;9.30;99.90;;;;;;5033052;28;20460;-74
2022/10/01 01:03:10;;;;;;;12.17;10.50;;;9.30;99.90;;;;;;5033596;28;20451;-74
2022/10/01 01:05:38;;;;;;;12.53;11.20;;;9.30;99.90;;;;;;5033657;28;20504;-74
2022/10/01 01:08:07;;;;;;;13.07;11.20;;;9.20;99.90;;;;;;5033726;28;20447;-74
2022/10/01 01:10:41;;;;;;;12.30;11.00;;;9.20;99.90;;;;;;5059844;22;20453;-77
2022/10/01 01:13:16;;;;;;;16.00;11.80;;;9.20;99.90;;;;;;5053590;28;20437;-77
2022/10/01 01:15:50;;;;;;;12.23;10.80;;;9.20;99.90;;;;;;5053530;28;20429;-77
2022/10/01 01:18:21;;;;;;;11.57;10.47;;;9.10;99.90;;;;;;5053567;28;20844;-77
2022/10/01 01:20:57;;;;;;;15.33;11.60;;;9.20;99.90;;;;;;5053435;28;20851;-77
2022/10/01 01:23:37;;;;;;;15.53;12.17;;;9.20;99.90;;;;;;5053277;28;20544;-78
2022/10/01 01:26:16;;;;;;;21.90;11.17;;;9.20;99.90;;;;;;5053800;28;20414;-77
2022/10/01 01:28:49;;;;;;;16.30;11.87;;;9.20;99.90;;;;;;5053603;28;20429;-77
2022/10/01 01:31:19;;;;;;;24.57;12.07;;;9.20;99.90;;;;;;5053112;28;20437;-77
2022/10/01 01:33:48;;;;;;;13.13;11.80;;;9.20;99.90;;;;;;5053209;28;20838;-77
2022/10/01 01:36:19;;;;;;;13.10;11.60;;;9.20;99.90;;;;;;5053711;28;20440;-77
2022/10/01 01:38:50;;;;;;;12.87;11.43;;;9.30;99.90;;;;;;5053176;28;20424;-77
2022/10/01 01:41:19;;;;;;;13.67;12.27;;;9.30;99.90;;;;;;5052638;28;20485;-77
2022/10/01 01:43:51;;;;;;;12.97;11.77;;;9.20;99.90;;;;;;5053003;28;20976;-77
2022/10/01 01:46:18;;;;;;;12.47;11.27;;;9.30;99.90;;;;;;5053118;28;20876;-77
2022/10/01 01:48:48;;;;;;;13.13;11.37;;;9.20;99.90;;;;;;5053536;28;20419;-77
2022/10/01 01:51:20;;;;;;;18.13;11.40;;;9.10;99.90;;;;;;5052874;28;20443;-77
2022/10/01 01:53:46;;;;;;;14.50;12.60;;;9.00;99.90;;;;;;5053134;28;20462;-77
2022/10/01 01:56:13;;;;;;;13.67;12.23;;;8.90;99.90;;;;;;5053062;28;20474;-77
2022/10/01 01:58:40;;;;;;;12.70;11.40;;;9.00;99.90;;;;;;5052899;28;20420;-78
2022/10/01 02:01:24;;;;;;;14.93;12.70;;;9.00;99.90;;;;;;5052671;28;20464;-77
2022/10/01 02:03:50;;;;;;;15.50;12.33;;;9.00;99.90;;;;;;5051937;28;20418;-77
2022/10/01 02:06:25;;;;;;;12.53;11.23;;;9.00;99.90;;;;;;5052779;28;20454;-77
2022/10/01 02:08:59;;;;;;;17.90;12.77;;;9.00;99.90;;;;;;5052562;28;20907;-77
2022/10/01 02:11:28;;;;;;;14.50;12.97;;;8.90;99.90;;;;;;5052764;28;20509;-78
2022/10/01 02:14:03;;;;;;;20.90;15.80;;;8.90;99.90;;;;;;5056198;28;20449;-76
2022/10/01 02:16:41;;;;;;;16.07;13.67;;;8.90;99.90;;;;;;5057024;28;20462;-77
2022/10/01 02:19:15;;;;;;;19.73;14.23;;;9.00;99.90;;;;;;5056783;28;20522;-77
2022/10/01 02:21:49;;;;;;;16.90;13.43;;;8.90;99.90;;;;;;5056341;28;21015;-77
2022/10/01 02:24:25;;;;;;;15.83;13.00;;;9.00;99.90;;;;;;5056509;28;20451;-77
2022/10/01 02:26:53;;;;;;;14.13;12.83;;;9.10;99.90;;;;;;5057343;28;20418;-76
2022/10/01 02:29:22;;;;;;;13.80;11.50;;;9.10;99.90;;;;;;5056295;28;20944;-76
2022/10/01 02:31:54;;;;;;;15.20;13.63;;;9.10;99.90;;;;;;5056601;28;20437;-76
2022/10/01 02:34:24;;;;;;;13.70;12.40;;;9.10;99.90;;;;;;5056707;28;20434;-76
2022/10/01 02:36:52;;;;;;;15.00;13.40;;;9.00;99.90;;;;;;5056516;28;20845;-76
2022/10/01 02:39:20;;;;;;;13.87;12.43;;;9.00;99.90;;;;;;5056351;28;20432;-77
2022/10/01 02:41:49;;;;;;;15.60;13.80;;;9.00;99.90;;;;;;5055891;28;21083;-77
2022/10/01 02:44:22;;;;;;;13.57;12.20;;;9.30;99.90;;;;;;5056373;28;20446;-77
2022/10/01 02:46:55;;;;;;;14.30;12.80;;;9.00;99.90;;;;;;5056755;28;20785;-77
2022/10/01 02:49:22;;;;;;;15.37;13.47;;;9.00;99.90;;;;;;5056001;28;20404;-77
2022/10/01 02:51:56;;;;;;;17.80;13.27;;;9.10;99.90;;;;;;5056267;28;20443;-77
2022/10/01 02:54:29;;;;;;;16.00;12.80;;;9.00;99.90;;;;;;5056155;28;20465;-77
2022/10/01 02:59:42;;;;;;;14.90;13.27;;;9.00;99.90;;;;;;5056076;28;20482;-77
2022/10/01 03:02:10;;;;;;;17.30;14.20;;;9.00;99.90;;;;;;5055844;28;20478;-77
2022/10/01 03:04:37;;;;;;;18.77;12.80;;;8.90;99.90;;;;;;5056071;28;20423;-77
2022/10/01 03:07:04;;;;;;;15.37;13.33;;;9.00;99.90;;;;;;5055681;28;21027;-76
2022/10/01 03:09:31;;;;;;;14.03;12.37;;;8.90;99.90;;;;;;5056103;28;20449;-77
2022/10/01 03:11:58;;;;;;;16.30;14.63;;;9.00;99.90;;;;;;5055550;28;20564;-77
2022/10/01 03:14:25;;;;;;;14.63;13.10;;;9.00;99.90;;;;;;5056230;28;20432;-77
2022/10/01 03:16:52;;;;;;;13.33;12.10;;;8.90;99.90;;;;;;5055902;28;20469;-76
2022/10/01 03:19:20;;;;;;;16.10;12.07;;;9.00;99.90;;;;;;5055835;28;20903;-77
2022/10/01 03:21:47;;;;;;;15.50;14.03;;;8.90;99.90;;;;;;5056171;28;20494;-77
2022/10/01 03:24:14;;;;;;;17.20;12.83;;;8.80;99.90;;;;;;5055189;28;20850;-77
2022/10/01 03:26:41;;;;;;;14.97;13.40;;;8.80;99.90;;;;;;5061940;28;20419;-79
2022/10/01 03:29:08;;;;;;;15.93;12.23;;;8.80;99.90;;;;;;5058494;28;20420;-78
2022/10/01 03:31:35;;;;;;;15.07;12.33;;;8.80;99.90;;;;;;5056560;28;20440;-78
2022/10/01 03:34:02;;;;;;;13.70;12.10;;;8.80;99.90;;;;;;5056235;28;20456;-77
2022/10/01 03:36:30;;;;;;;13.40;12.00;;;8.80;99.90;;;;;;5056411;28;20514;-78
2022/10/01 03:38:57;;;;;;;13.60;11.73;;;8.80;99.90;;;;;;5056403;28;20774;-78
2022/10/01 03:41:24;;;;;;;17.17;12.32;;;8.70;99.90;;;;;;5055888;28;20874;-78
2022/10/01 03:43:50;;;;;;;13.97;12.03;;;8.80;99.90;;;;;;5057063;28;20260;-79
2022/10/01 03:46:17;;;;;;;14.23;12.10;;;8.70;99.90;;;;;;5056719;28;20419;-78
2022/10/01 03:48:44;;;;;;;14.00;12.27;;;8.70;99.90;;;;;;5057210;28;20540;-79
2022/10/01 03:51:11;;;;;;;14.00;11.83;;;8.80;99.90;;;;;;5055066;28;20448;-77
2022/10/01 03:53:39;;;;;;;12.23;11.03;;;8.70;99.90;;;;;;5055161;28;20420;-77
2022/10/01 03:56:06;;;;;;;11.67;10.53;;;8.70;99.90;;;;;;5055144;28;20498;-78
2022/10/01 03:58:33;;;;;;;16.77;12.70;;;8.80;99.90;;;;;;5055428;28;20433;-78
2022/10/01 04:01:00;;;;;;;12.97;11.23;;;8.90;99.90;;;;;;5055092;28;20546;-79
2022/10/01 04:03:26;;;;;;;12.30;11.13;;;8.80;99.90;;;;;;5055114;28;20427;-77
2022/10/01 04:05:53;;;;;;;13.73;12.35;;;8.80;99.90;;;;;;5054704;28;21000;-77
2022/10/01 04:08:20;;;;;;;13.20;10.83;;;8.80;99.90;;;;;;5054842;28;20199;-77
2022/10/01 04:10:48;;;;;;;13.33;11.90;;;8.80;99.90;;;;;;5054511;28;20539;-77
2022/10/01 04:13:15;;;;;;;13.43;11.77;;;8.80;99.90;;;;;;5054750;28;20540;-77
2022/10/01 04:15:42;;;;;;;13.37;11.77;;;8.80;99.90;;;;;;5054773;28;20485;-77
2022/10/01 04:18:09;;;;;;;12.67;11.00;;;8.80;99.90;;;;;;5054530;28;20940;-77
2022/10/01 04:20:37;;;;;;;19.13;11.30;;;8.80;99.90;;;;;;5054493;28;20463;-76
2022/10/01 04:23:04;;;;;;;14.10;10.97;;;8.80;99.90;;;;;;5054049;28;20444;-77
2022/10/01 04:25:31;;;;;;;12.47;11.27;;;8.70;99.90;;;;;;5054743;28;20449;-77
2022/10/01 04:28:01;;;;;;;11.20;9.80;;;8.80;99.90;;;;;;5054907;28;20991;-78
2022/10/01 04:30:30;;;;;;;12.85;10.95;;;9.10;99.90;;;;;;5055198;28;20445;-77
2022/10/01 04:32:56;;;;;;;13.07;10.88;;;8.80;99.90;;;;;;5054058;28;20451;-77
2022/10/01 04:35:24;;;;;;;14.90;12.07;;;8.80;99.90;;;;;;5054935;28;20634;-77
2022/10/01 04:37:57;;;;;;;11.00;9.90;;;8.80;99.90;;;;;;5054330;28;20428;-77
2022/10/01 04:40:23;;;;;;;10.63;9.63;;;8.80;99.90;;;;;;5054304;28;20232;-76
2022/10/01 04:42:50;;;;;;;12.83;11.50;;;8.80;99.90;;;;;;5055004;28;20449;-77
2022/10/01 04:45:18;;;;;;;11.97;10.60;;;8.80;99.90;;;;;;5055366;28;20507;-78
2022/10/01 04:47:49;;;;;;;12.90;11.10;;;8.80;99.90;;;;;;5061363;28;20465;-76
2022/10/01 04:50:16;;;;;;;13.43;10.90;;;8.90;99.90;;;;;;5061344;28;20930;-77
2022/10/01 04:52:43;;;;;;;15.67;11.17;;;8.70;99.90;;;;;;5055685;28;20420;-78
2022/10/01 04:55:10;;;;;;;18.60;11.20;;;8.80;99.90;;;;;;5054867;28;20423;-78
2022/10/01 04:57:38;;;;;;;11.07;9.87;;;8.70;99.90;;;;;;5054473;28;20995;-77
2022/10/01 05:00:07;;;;;;;10.77;9.65;;;8.60;99.90;;;;;;5053862;28;20424;-78
2022/10/01 05:02:35;;;;;;;10.77;9.67;;;8.60;99.90;;;;;;5053759;28;20238;-77
2022/10/01 05:05:03;;;;;;;14.85;12.50;;;8.70;99.90;;;;;;5053433;28;20457;-77
2022/10/01 05:07:30;;;;;;;14.40;11.87;;;8.70;99.90;;;;;;5053925;28;20237;-77
2022/10/01 05:09:57;;;;;;;14.30;9.63;;;8.70;99.90;;;;;;5054010;28;20540;-76
2022/10/01 05:12:24;;;;;;;12.50;10.53;;;8.80;99.90;;;;;;5053326;28;20469;-77
2022/10/01 05:14:50;;;;;;;12.13;10.80;;;8.70;99.90;;;;;;5053633;28;20457;-76
2022/10/01 05:17:18;;;;;;;11.00;9.77;;;8.80;99.90;;;;;;5054493;28;20450;-76
2022/10/01 05:19:47;;;;;;;11.47;9.77;;;8.80;99.90;;;;;;5053490;28;20461;-76
2022/10/01 05:22:14;;;;;;;12.27;9.63;;;8.80;99.90;;;;;;5053611;28;20484;-77
2022/10/01 05:24:42;;;;;;;11.40;10.27;;;8.80;99.90;;;;;;5053606;28;20423;-76
2022/10/01 05:27:11;;;;;;;9.10;8.20;;;8.90;99.90;;;;;;5053298;28;20459;-77
2022/10/01 05:29:37;;;;;;;10.10;8.80;;;8.90;99.90;;;;;;5053257;28;20551;-77
2022/10/01 05:32:04;;;;;;;8.67;7.87;;;8.80;99.90;;;;;;5053450;28;20858;-76
2022/10/01 05:34:31;;;;;;;10.07;8.60;;;8.80;99.90;;;;;;5054078;28;20524;-78
2022/10/01 05:36:59;;;;;;;10.20;9.10;;;8.80;99.90;;;;;;5053898;28;20425;-77
2022/10/01 05:39:26;;;;;;;13.23;9.13;;;8.90;99.90;;;;;;5055796;28;20495;-78
2022/10/01 05:41:54;;;;;;;9.93;9.00;;;8.90;99.90;;;;;;5053023;28;20464;-77
2022/10/01 05:44:21;;;;;;;9.40;8.40;;;8.80;99.90;;;;;;5053284;28;20428;-77
2022/10/01 05:46:47;;;;;;;11.27;8.87;;;8.90;99.90;;;;;;5052576;28;20424;-77
2022/10/01 05:49:14;;;;;;;9.47;8.17;;;8.90;99.90;;;;;;5052861;28;20946;-77
2022/10/01 05:51:41;;;;;;;8.70;7.90;;;8.90;99.90;;;;;;5052927;28;20534;-77
2022/10/01 05:54:09;;;;;;;9.90;8.87;;;9.00;99.90;;;;;;5053481;28;20853;-77
2022/10/01 05:56:36;;;;;;;11.00;9.67;;;9.00;99.90;;;;;;5053328;28;20449;-77
2022/10/01 05:59:03;;;;;;;9.17;8.20;;;9.00;99.90;;;;;;5053470;28;20503;-77
2022/10/01 06:01:31;;;;;;;9.80;8.73;;;9.00;99.90;;;;;;5052746;28;20490;-76
2022/10/01 06:03:58;;;;;;;13.20;9.00;;;9.10;99.90;;;;;;5053102;28;20518;-76
2022/10/01 06:06:26;;;;;;;8.97;8.07;;;9.10;99.90;;;;;;5052973;28;20458;-76
2022/10/01 06:08:53;;;;;;;9.37;7.70;;;9.20;99.90;;;;;;5052858;28;20611;-76
2022/10/01 06:11:23;;;;;;;11.80;9.00;;;9.20;99.90;;;;;;5052395;28;20531;-76
2022/10/01 06:13:49;;;;;;;8.80;8.00;;;9.20;99.90;;;;;;5053064;28;20790;-75
2022/10/01 06:16:16;;;;;;;10.47;8.50;;;9.20;99.90;;;;;;5052817;28;20472;-75
2022/10/01 06:18:43;;;;;;;8.93;8.03;;;9.30;99.90;;;;;;5052753;28;20420;-76
2022/10/01 06:21:10;;;;;;;9.27;8.37;;;9.30;99.90;;;;;;5052410;28;20460;-77
2022/10/01 06:23:36;;;;;;;8.60;7.80;;;9.40;99.90;;;;;;5052673;28;20424;-76
2022/10/01 06:26:05;;;;;;;9.67;8.63;;;9.40;99.90;;;;;;5052470;28;20457;-76
2022/10/01 06:28:33;;;;;;;9.17;8.37;;;9.40;99.90;;;;;;5052698;28;20507;-77
2022/10/01 06:31:01;;;;;;;10.83;8.30;;;9.40;99.90;;;;;;5052509;28;20444;-76
2022/10/01 06:33:28;;;;;;;9.03;8.13;;;9.40;99.90;;;;;;5052694;28;20852;-76
2022/10/01 06:35:55;;;;;;;10.23;8.80;;;9.50;99.90;;;;;;5052790;28;20461;-76
2022/10/01 06:38:24;;;;;;;8.53;7.70;;;9.50;99.90;;;;;;5052815;28;20839;-77
2022/10/01 06:40:52;;;;;;;10.23;8.27;;;9.50;99.90;;;;;;5052054;28;20442;-77
2022/10/01 06:43:18;;;;;;;9.40;8.40;;;9.60;99.90;;;;;;5053429;28;20441;-77
2022/10/01 06:45:46;;;;;;;10.13;9.13;;;9.60;99.90;;;;;;5053016;28;20481;-77
2022/10/01 06:48:15;;;;;;;8.90;8.10;;;9.60;99.90;;;;;;5052925;28;20412;-77
2022/10/01 06:50:44;;;;;;;9.57;8.77;;;9.70;99.90;;;;;;5052864;28;20520;-77
2022/10/01 06:53:11;;;;;;;7.83;7.00;;;9.80;99.90;;;;;;5053223;28;20514;-77
2022/10/01 06:55:38;;;;;;;13.30;7.67;;;9.80;99.90;;;;;;5052792;28;20858;-77
2022/10/01 06:58:07;;;;;;;8.37;7.60;;;9.70;93.20;;;;;;5052996;28;20825;-77
2022/10/01 07:00:37;;;;;;;8.67;7.57;;;9.80;86.10;;;;;;5055422;28;20464;-77
2022/10/01 07:03:09;;;;;;;11.20;8.03;;;9.90;35.40;;;;;;5056108;28;20490;-77
2022/10/01 07:05:37;;;;;;;10.90;8.07;;;9.90;16.30;;;;;;5056110;28;20413;-77
2022/10/01 07:08:03;;;;;;;10.77;8.60;;;9.90;46.90;;;;;;5055977;28;20448;-77
2022/10/01 07:13:06;;;;;;;8.17;7.20;;;9.90;74.80;;;;;;5034710;28;20947;-73
2022/10/01 07:15:33;;;;;;;10.33;8.27;;;9.90;99.90;;;;;;5035974;28;20397;-73
2022/10/01 07:18:00;;;;;;;10.10;8.50;;;10.00;99.90;;;;;;5035872;28;20417;-74
2022/10/01 07:20:28;;;;;;;10.70;9.60;;;10.00;69.40;;;;;;5035599;28;20961;-73
2022/10/01 07:22:57;;;;;;;9.80;8.60;;;10.10;95.70;;;;;;5035221;28;20461;-74
2022/10/01 07:25:24;;;;;;;7.47;6.83;;;10.00;62.50;;;;;;5035856;28;20793;-75
2022/10/01 07:27:54;;;;;;;8.50;7.50;;;10.10;76.30;;;;;;5035572;28;20560;-74
2022/10/01 07:30:22;;;;;;;13.63;7.50;;;10.10;32.20;;;;;;5035710;28;20457;-73
2022/10/01 07:32:49;;;;;;;9.87;8.87;;;10.10;54.40;;;;;;5035597;28;20448;-74
2022/10/01 07:35:16;;;;;;;9.70;8.70;;;10.10;74.80;;;;;;5035571;28;20479;-75
2022/10/01 07:37:44;;;;;;;9.60;7.83;;;10.20;99.90;;;;;;5035666;28;20450;-75
2022/10/01 07:40:11;;;;;;;8.87;7.77;;;10.20;44.70;;;;;;5036047;28;20479;-75
2022/10/01 07:42:38;;;;;;;9.13;8.30;;;10.30;1.00;;;;;;5035472;28;20515;-74
2022/10/01 07:45:06;;;;;;;8.30;7.50;;;10.30;66.50;;;;;;5035421;28;20447;-75
2022/10/01 07:47:33;;;;;;;11.80;9.13;;;10.40;14.10;;;;;;5035353;28;20471;-74
2022/10/01 07:49:59;;;;;;;10.13;8.10;;;10.40;1.00;;;;;;5035572;28;20450;-74
2022/10/01 07:52:26;;;;;;;7.90;7.10;;;10.40;1.00;;;;;;5035249;28;20467;-74
2022/10/01 07:54:54;;;;;;;8.63;6.83;;;10.50;1.00;;;;;;5034661;28;20442;-75
2022/10/01 07:57:21;;;;;;;9.17;8.23;;;10.60;1.00;;;;;;5035367;28;20421;-75
2022/10/01 07:59:47;;;;;;;9.40;7.20;;;10.60;1.00;;;;;;5035381;28;20540;-74
2022/10/01 08:02:15;;;;;;;9.43;7.87;;;10.70;1.00;;;;;;5035548;28;20591;-75
2022/10/01 08:07:41;;;;;;;8.00;7.20;;;10.80;1.00;;;;;;4954791;29;20408;-74
2022/10/01 08:10:09;;;;;;;11.27;7.50;;;10.90;99.90;;;;;;4954463;28;20952;-74
2022/10/01 08:12:36;;;;;;;9.83;7.83;;;11.00;99.90;;;;;;4989599;28;20457;-75
2022/10/01 08:15:06;;;;;;;8.50;6.97;;;11.00;99.90;;;;;;5035109;28;20824;-74
2022/10/01 08:17:33;;;;;;;9.90;7.60;;;11.00;99.90;;;;;;5034664;28;20453;-75
2022/10/01 08:20:01;;;;;;;10.17;8.43;;;11.10;99.90;;;;;;5035439;28;20417;-75
2022/10/01 08:22:27;;;;;;;8.03;7.17;;;11.20;45.70;;;;;;5035345;28;20482;-74
2022/10/01 08:24:54;;;;;;;11.07;8.50;;;11.20;1.00;;;;;;5035041;28;20475;-75
2022/10/01 08:27:23;;;;;;;9.00;8.10;;;11.20;1.00;;;;;;5034830;28;20458;-75
2022/10/01 08:29:50;;;;;;;9.17;8.30;;;11.30;47.90;;;;;;5034760;28;20504;-74
2022/10/01 08:32:17;;;;;;;9.10;8.20;;;11.30;1.00;;;;;;5034631;28;20469;-75
2022/10/01 08:34:43;;;;;;;10.17;7.80;;;11.30;1.00;;;;;;5034769;28;20450;-75
2022/10/01 08:37:10;;;;;;;8.03;7.20;;;11.40;1.00;;;;;;5034517;28;20429;-75
2022/10/01 08:39:37;;;;;;;8.60;7.73;;;11.40;1.00;;;;;;5035054;28;20520;-75
2022/10/01 08:42:08;;;;;;;9.57;8.37;;;11.40;1.00;;;;;;5034946;28;20544;-75
2022/10/01 08:44:41;;;;;;;7.97;7.20;;;11.50;1.00;;;;;;5035080;28;20530;-75
2022/10/01 08:47:13;;;;;;;8.60;7.70;;;11.50;1.00;;;;;;5034528;28;20496;-75
2022/10/01 08:49:44;;;;;;;8.20;7.40;;;11.50;1.00;;;;;;5034304;28;20442;-74
2022/10/01 08:52:20;;;;;;;8.60;7.80;;;11.50;27.00;;;;;;5034073;28;20466;-75
2022/10/01 08:54:51;;;;;;;8.27;7.13;;;11.60;1.00;;;;;;5034599;28;20787;-73
2022/10/01 08:57:22;;;;;;;10.30;8.40;;;11.70;99.90;;;;;;5033526;28;20405;-73
2022/10/01 08:59:54;;;;;;;8.63;7.73;;;11.80;15.50;;;;;;5033774;28;20439;-74
2022/10/01 09:02:23;;;;;;;7.77;7.17;;;11.80;99.90;;;;;;5033745;28;20838;-74
2022/10/01 09:04:53;;;;;;;7.67;6.70;;;11.90;1.00;;;;;;5033698;28;20741;-74
2022/10/01 09:07:46;;;;;;;11.23;7.63;;;12.00;99.90;;;;;;5033658;28;20425;-75
2022/10/01 09:10:30;;;;;;;7.43;6.73;;;12.00;1.00;;;;;;5033123;28;20545;-75
2022/10/01 09:13:26;;;;;;;6.43;5.73;;;12.20;50.30;;;;;;5033206;28;20953;-74
2022/10/01 09:16:01;;;;;;;7.53;6.17;;;12.20;1.00;;;;;;5033319;28;20405;-74
2022/10/01 09:18:39;;;;;;;7.83;6.93;;;12.40;1.00;;;;;;5033822;28;20496;-75
2022/10/01 09:21:15;;;;;;;6.20;5.40;;;12.40;1.00;;;;;;5034969;28;20466;-79
2022/10/01 09:23:56;;;;;;;5.90;5.30;;;12.40;1.00;;;;;;5035024;28;20973;-79
2022/10/01 09:26:23;;;;;;;6.23;5.47;;;12.50;1.00;;;;;;5036902;28;20431;-79
2022/10/01 09:28:53;;;;;;;6.00;5.40;;;12.50;1.00;;;;;;5038455;28;20839;-78
2022/10/01 09:31:26;;;;;;;7.07;5.50;;;12.90;1.00;;;;;;5036220;28;21037;-78
2022/10/01 09:33:58;;;;;;;5.43;4.93;;;12.60;99.90;;;;;;5041164;28;20435;-77
2022/10/01 09:36:34;;;;;;;4.93;4.53;;;12.80;99.90;;;;;;5037539;28;20896;-78
2022/10/01 09:39:11;;;;;;;10.43;5.40;;;12.80;1.00;;;;;;5038146;28;20488;-78
2022/10/01 09:41:38;;;;;;;5.00;4.60;;;13.00;1.00;;;;;;5035996;28;20444;-78
2022/10/01 09:44:06;;;;;;;8.27;4.63;;;13.00;1.00;;;;;;5035655;28;20476;-78
2022/10/01 09:46:34;;;;;;;5.70;3.83;;;13.10;1.00;;;;;;5035690;28;20452;-78
2022/10/01 09:49:08;;;;;;;3.90;3.60;;;13.10;99.90;;;;;;5034952;28;20769;-77
2022/10/01 09:51:39;;;;;;;4.87;4.37;;;13.00;99.90;;;;;;5034328;28;20440;-78
2022/10/01 09:54:16;;;;;;;8.23;4.03;;;12.90;99.90;;;;;;5033981;28;20483;-78
2022/10/01 09:56:46;;;;;;;4.67;4.27;;;12.80;1.00;;;;;;5034297;28;20441;-78
2022/10/01 09:59:21;;;;;;;7.20;3.33;;;12.70;1.00;;;;;;5034398;28;20784;-78
2022/10/01 10:01:53;;;;;;;4.83;3.80;;;12.60;1.00;;;;;;5035659;28;20501;-79
2022/10/01 10:04:22;;;;;;;3.63;3.30;;;12.80;1.00;;;;;;5039684;28;20415;-78
2022/10/01 10:06:49;;;;;;;3.53;3.23;;;12.50;1.00;;;;;;5040334;28;20446;-78
2022/10/01 10:09:18;;;;;;;3.80;3.43;;;12.50;1.00;;;;;;5039486;28;20866;-78
2022/10/01 10:11:45;;;;;;;3.13;2.83;;;12.50;1.00;;;;;;5034564;28;20488;-78
2022/10/01 10:14:18;;;;;;;3.93;3.63;;;12.30;1.00;;;;;;5034340;28;20446;-78
2022/10/01 10:16:46;;;;;;;3.87;3.57;;;12.30;99.90;;;;;;5034498;28;20405;-77
2022/10/01 10:19:23;;;;;;;4.40;3.93;;;12.30;99.90;;;;;;5035681;28;20542;-77
2022/10/01 10:21:51;;;;;;;10.97;5.07;;;12.10;1.00;;;;;;5035812;28;20506;-79
2022/10/01 10:24:25;;;;;;;6.00;4.40;;;12.10;1.00;;;;;;5035422;28;20550;-79
2022/10/01 10:26:54;;;;;;;3.83;3.53;;;11.90;99.90;;;;;;5035548;28;20414;-78
2022/10/01 10:29:30;;;;;;;6.60;6.00;;;11.80;99.90;;;;;;5035853;28;20473;-78
2022/10/01 10:31:57;;;;;;;8.60;5.53;;;11.80;99.90;;;;;;5036237;28;20548;-78
2022/10/01 10:34:32;;;;;;;9.00;6.43;;;11.70;99.90;;;;;;5038046;28;20825;-77
2022/10/01 10:37:03;;;;;;;8.00;5.87;;;11.60;99.90;;;;;;5037581;28;20438;-77
2022/10/01 10:39:33;;;;;;;6.50;5.90;;;11.60;99.90;;;;;;5038325;28;20569;-78
2022/10/01 10:42:02;;;;;;;7.40;6.87;;;11.60;99.90;;;;;;5037964;28;20445;-79
2022/10/01 10:44:34;;;;;;;10.27;7.77;;;11.50;99.90;;;;;;5038476;28;20413;-79
2022/10/01 10:47:04;;;;;;;7.43;6.70;;;11.50;99.90;;;;;;5040009;28;20405;-79
2022/10/01 10:49:43;;;;;;;6.20;5.70;;;11.40;99.90;;;;;;5039796;28;20427;-78
2022/10/01 10:52:20;;;;;;;9.23;6.77;;;11.40;99.90;;;;;;5039107;28;20460;-78
2022/10/01 10:54:48;;;;;;;8.63;6.57;;;12.70;99.90;;;;;;5041403;28;20430;-73
2022/10/01 10:57:19;;;;;;;7.60;6.80;;;11.30;99.90;;;;;;5038259;28;20457;-74
2022/10/01 10:59:55;;;;;;;9.33;7.17;;;11.30;99.90;;;;;;5036561;28;20457;-74
2022/10/01 11:02:24;;;;;;;7.53;6.90;;;11.30;99.90;;;;;;5036234;28;20462;-74
2022/10/01 11:04:54;;;;;;;8.93;8.07;;;11.20;99.90;;;;;;5036194;28;20523;-75
2022/10/01 11:07:23;;;;;;;11.17;9.17;;;11.20;99.90;;;;;;5036177;28;20995;-75
2022/10/01 11:10:16;;;;;;;9.37;7.60;;;11.20;99.90;;;;;;5036114;28;20496;-75
2022/10/01 11:12:59;;;;;;;8.33;7.30;;;11.20;99.90;;;;;;5035387;28;20974;-74
2022/10/01 11:15:38;;;;;;;8.63;7.37;;;11.20;99.90;;;;;;5036860;28;20430;-77
2022/10/01 11:18:43;;;;;;;8.20;7.40;;;11.20;99.90;;;;;;5036517;28;20401;-76
2022/10/01 11:21:30;;;;;;;8.77;7.80;;;11.40;99.90;;;;;;4968536;28;20984;-77
2022/10/01 11:24:13;;;;;;;13.67;10.97;;;10.70;99.90;;;;;;5035747;28;20525;-75
2022/10/01 11:26:48;;;;;;;10.07;8.57;;;11.20;99.90;;;;;;5035915;28;20442;-75
2022/10/01 11:29:25;;;;;;;8.70;7.93;;;11.20;99.90;;;;;;5036115;28;20443;-76
2022/10/01 11:32:02;;;;;;;8.80;7.63;;;11.20;99.90;;;;;;5037912;28;20975;-76
2022/10/01 11:34:49;;;;;;;9.10;8.20;;;11.20;99.90;;;;;;5036367;28;20431;-76
2022/10/01 11:37:35;;;;;;;7.67;6.97;;;11.20;99.90;;;;;;5037308;28;20434;-77
2022/10/01 11:40:12;;;;;;;7.03;6.33;;;11.30;99.90;;;;;;5036536;28;20856;-77
2022/10/01 11:42:40;;;;;;;7.73;7.03;;;11.30;99.90;;;;;;5036122;28;20468;-77
2022/10/01 11:45:15;;;;;;;6.57;5.97;;;11.30;99.90;;;;;;5035774;28;20443;-77
2022/10/01 11:47:49;;;;;;;6.53;5.83;;;11.30;99.90;;;;;;5038701;28;20445;-78
2022/10/01 11:50:18;;;;;;;8.23;5.90;;;11.30;99.90;;;;;;5039148;28;20414;-76
2022/10/01 11:52:51;;;;;;;7.43;5.73;;;11.30;99.90;;;;;;5035875;28;20471;-75
2022/10/01 12:01:03;;;;;;;8.53;6.93;;;11.20;99.90;;;;;;5036228;28;20434;-76
2022/10/01 12:03:36;;;;;;;8.93;6.43;;;11.20;99.90;;;;;;5035659;28;20865;-75
2022/10/01 12:06:08;;;;;;;8.37;7.47;;;11.20;99.90;;;;;;5035251;28;20435;-76
2022/10/01 12:08:40;;;;;;;6.30;5.80;;;11.20;99.90;;;;;;5036076;28;20439;-75
2022/10/01 12:11:16;;;;;;;6.83;6.13;;;11.40;99.90;;;;;;5036054;28;20474;-76
2022/10/01 12:13:54;;;;;;;7.83;5.60;;;11.20;99.90;;;;;;5038899;28;20446;-77
2022/10/01 12:16:28;;;;;;;7.57;6.60;;;11.30;99.90;;;;;;5038967;28;20427;-75
2022/10/01 12:18:58;;;;;;;9.27;6.87;;;11.30;99.90;;;;;;5036560;28;20518;-76
2022/10/01 12:21:29;;;;;;;7.20;6.50;;;11.30;99.90;;;;;;5034888;28;20477;-75
2022/10/01 12:24:01;;;;;;;7.20;6.30;;;11.30;99.90;;;;;;5034961;28;20445;-76
2022/10/01 12:26:38;;;;;;;6.60;5.93;;;11.30;99.90;;;;;;5035826;28;20471;-77
2022/10/01 12:29:14;;;;;;;6.00;5.30;;;11.30;99.90;;;;;;5037544;28;20459;-77
2022/10/01 12:31:49;;;;;;;6.77;6.13;;;11.30;99.90;;;;;;5034819;28;20949;-77
2022/10/01 12:34:25;;;;;;;7.40;6.63;;;11.40;99.90;;;;;;5037193;28;20435;-76
2022/10/01 12:37:04;;;;;;;7.13;6.47;;;11.40;99.90;;;;;;5036474;28;20476;-76
2022/10/01 12:39:42;;;;;;;6.37;5.77;;;11.30;99.90;;;;;;5036189;28;20530;-76
2022/10/01 12:42:28;;;;;;;17.47;12.30;;;11.30;99.90;;;;;;5036144;28;20524;-75
2022/10/01 12:45:09;;;;;;;8.50;7.60;;;11.20;99.90;;;;;;5035546;28;20474;-77
2022/10/01 12:47:47;;;;;;;7.50;6.70;;;11.20;99.90;;;;;;5034747;28;20435;-76
2022/10/01 12:50:26;;;;;;;7.37;6.67;;;11.20;99.90;;;;;;5034311;28;20405;-76
2022/10/01 12:53:18;;;;;;;9.60;8.07;;;11.20;99.90;;;;;;5033743;28;20449;-76
2022/10/01 12:56:06;;;;;;;9.33;8.00;;;11.10;99.90;;;;;;5034254;28;20405;-76
2022/10/01 12:58:50;;;;;;;8.07;7.30;;;11.10;99.90;;;;;;5035175;28;20931;-80
2022/10/01 13:01:26;;;;;;;10.27;9.23;;;11.10;99.90;;;;;;5036697;28;20757;-85
2022/10/01 13:04:09;;;;;;;12.17;10.80;;;10.80;99.90;;;;;;5034939;28;20470;-77
2022/10/01 13:06:47;;;;;;;14.23;11.13;;;11.10;99.90;;;;;;5034161;28;20410;-77
2022/10/01 13:09:24;;;;;;;12.80;8.70;;;11.10;99.90;;;;;;5033754;28;20435;-75
2022/10/01 13:12:12;;;;;;;10.00;9.00;;;11.10;99.90;;;;;;5056184;22;20465;-78
2022/10/01 13:14:43;;;;;;;9.03;8.23;;;11.10;99.90;;;;;;5058240;28;20435;-79
2022/10/01 13:17:17;;;;;;;7.27;6.60;;;11.10;99.90;;;;;;5057660;28;20484;-78